Time;durP1;ratioP1;P1;durP2;ratioP2;P2;SDS_P1;SDS_P2;PMS_P1;PMS_P2;Temp;Humidity;BMP_temperature;BMP_pressure;BME280_temperature;BME280_humidity;BME280_pressure;Samples;Min_cycle;Max_cycle;Signal;HPM_P1;HPM_P2
2021/12/25 00:00:38;;;;;;;11.80;9.38;;;;;;;8.13;84.20;95533.91;4953942;28;20054;-78
2021/12/25 00:03:05;;;;;;;11.45;9.68;;;;;;;8.14;84.25;95532.94;4954091;28;20055;-78
2021/12/25 00:05:33;;;;;;;10.65;8.82;;;;;;;8.14;83.94;95542.53;4954305;29;20058;-78
2021/12/25 00:08:01;;;;;;;10.43;8.52;;;;;;;8.15;83.88;95547.50;4953832;28;20051;-78
2021/12/25 00:10:30;;;;;;;13.60;9.82;;;;;;;8.15;84.00;95542.31;4953874;28;20051;-79
2021/12/25 00:12:57;;;;;;;11.43;9.68;;;;;;;8.14;84.04;95540.72;4954057;28;20047;-78
2021/12/25 00:15:26;;;;;;;13.32;10.02;;;;;;;8.14;84.03;95551.13;4954196;28;20052;-78
2021/12/25 00:17:55;;;;;;;11.77;9.70;;;;;;;8.14;83.85;95551.13;4953612;28;20087;-78
2021/12/25 00:20:22;;;;;;;10.77;8.48;;;;;;;8.15;83.98;95544.91;4953967;28;20059;-78
2021/12/25 00:22:50;;;;;;;13.32;9.90;;;;;;;8.15;83.84;95542.31;4953950;29;20048;-79
2021/12/25 00:25:19;;;;;;;13.70;10.00;;;;;;;8.16;83.86;95543.94;4953584;28;20051;-78
2021/12/25 00:27:55;;;;;;;9.52;7.85;;;;;;;8.16;83.91;95543.13;4953409;29;20536;-78
2021/12/25 00:30:30;;;;;;;12.77;9.40;;;;;;;8.16;84.11;95548.34;4953881;28;20055;-79
2021/12/25 00:33:04;;;;;;;9.75;7.93;;;;;;;8.17;84.06;95542.94;4954132;29;20058;-78
2021/12/25 00:35:31;;;;;;;12.70;9.85;;;;;;;8.17;84.04;95545.53;4954531;28;20059;-79
2021/12/25 00:37:59;;;;;;;14.60;10.73;;;;;;;8.16;84.10;95538.75;4953677;28;20051;-78
2021/12/25 00:40:28;;;;;;;12.98;9.93;;;;;;;8.16;84.09;95538.75;4953892;28;20078;-79
2021/12/25 00:42:55;;;;;;;12.75;9.55;;;;;;;8.18;83.88;95535.97;4954821;28;20054;-78
2021/12/25 00:45:23;;;;;;;11.75;9.55;;;;;;;8.18;83.77;95526.34;4957351;29;20066;-79
2021/12/25 00:47:51;;;;;;;14.27;10.52;;;;;;;8.16;83.75;95528.34;4956976;28;20056;-78
2021/12/25 00:50:19;;;;;;;13.93;11.25;;;;;;;8.15;83.99;95525.94;4957032;28;20059;-78
2021/12/25 00:52:47;;;;;;;13.05;10.35;;;;;;;8.14;84.10;95525.13;4957034;29;20573;-78
2021/12/25 00:55:14;;;;;;;12.48;9.82;;;;;;;8.14;83.96;95530.34;4957338;28;20055;-78
2021/12/25 00:57:42;;;;;;;12.20;8.98;;;;;;;8.14;83.89;95532.94;4956825;29;20058;-78
2021/12/25 01:00:12;;;;;;;12.50;10.23;;;;;;;8.14;84.03;95535.53;4957079;28;20047;-78
2021/12/25 01:02:42;;;;;;;13.10;10.93;;;;;;;8.14;84.01;95535.53;4957266;29;20047;-78
2021/12/25 01:05:12;;;;;;;14.25;10.25;;;;;;;8.14;83.95;95530.34;4957928;29;20502;-78
2021/12/25 01:07:42;;;;;;;14.27;11.60;;;;;;;8.14;83.90;95529.53;4958318;29;20428;-78
2021/12/25 01:10:14;;;;;;;12.07;9.52;;;;;;;8.13;83.90;95535.72;4956802;28;20481;-78
2021/12/25 01:12:54;;;;;;;15.10;11.48;;;;;;;8.13;84.00;95533.91;4957136;28;20207;-78
2021/12/25 01:15:29;;;;;;;15.10;10.55;;;;;;;8.13;83.97;95528.72;4956691;29;20102;-78
2021/12/25 01:18:30;;;;;;;11.70;9.20;;;;;;;8.14;83.98;95529.53;4956894;29;20047;-78
2021/12/25 01:21:16;;;;;;;13.65;10.23;;;;;;;8.14;83.86;95535.53;4956646;28;20055;-78
2021/12/25 01:26:54;;;;;;;13.43;10.95;;;;;;;8.15;83.69;95526.72;4956554;28;20051;-78
2021/12/25 01:29:32;;;;;;;14.85;11.07;;;;;;;8.15;83.66;95531.91;4956423;28;20062;-79
2021/12/25 01:32:25;;;;;;;17.67;13.00;;;;;;;8.15;83.74;95526.72;4956473;28;20052;-78
2021/12/25 01:37:42;;;;;;;13.85;10.60;;;;;;;8.13;83.77;95533.91;4946069;29;19922;-78
2021/12/25 01:40:43;;;;;;;16.45;11.75;;;;;;;8.11;83.83;95525.53;4956194;28;20051;-78
2021/12/25 01:48:43;;;;;;;12.02;10.00;;;;;;;8.10;83.99;95523.91;4958136;28;20106;-78
2021/12/25 01:51:11;;;;;;;18.80;12.07;;;;;;;8.11;83.72;95525.53;4957809;28;20343;-78
2021/12/25 01:53:38;;;;;;;17.33;12.00;;;;;;;8.10;83.88;95523.91;4957403;28;20051;-79
2021/12/25 01:56:08;;;;;;;18.42;12.88;;;;;;;8.11;84.13;95514.31;4957107;28;20066;-78
2021/12/25 01:58:37;;;;;;;17.05;12.23;;;;;;;8.10;84.32;95508.34;4956789;29;20058;-78
2021/12/25 02:01:06;;;;;;;15.68;12.00;;;;;;;8.11;84.36;95498.75;4956566;28;20051;-79
2021/12/25 02:03:36;;;;;;;14.98;10.52;;;;;;;8.12;84.19;95506.34;4956831;29;20051;-78
2021/12/25 02:06:05;;;;;;;13.27;10.55;;;;;;;8.13;84.16;95502.75;4955883;29;20528;-78
2021/12/25 02:08:34;;;;;;;14.77;11.65;;;;;;;8.13;83.98;95505.34;4956217;28;20055;-78
2021/12/25 02:11:02;;;;;;;14.90;11.05;;;;;;;8.11;84.23;95504.75;4955902;28;20048;-78
2021/12/25 02:13:32;;;;;;;15.63;11.77;;;;;;;8.11;84.13;95504.75;4956121;28;20055;-78
2021/12/25 02:16:05;;;;;;;14.00;11.18;;;;;;;8.12;84.26;95501.16;4955652;29;20059;-78
2021/12/25 02:18:54;;;;;;;15.02;10.77;;;;;;;8.13;84.14;95496.75;4956242;28;20077;-78
2021/12/25 02:21:26;;;;;;;16.48;11.68;;;;;;;8.12;84.20;95506.34;4956170;28;20065;-78
2021/12/25 02:23:56;;;;;;;15.70;11.48;;;;;;;8.12;84.23;95501.16;4955872;28;20054;-78
2021/12/25 02:26:24;;;;;;;20.23;12.02;;;;;;;8.12;84.02;95498.56;4955358;28;20047;-78
2021/12/25 02:28:52;;;;;;;19.30;10.07;;;;;;;8.12;84.32;95497.75;4955672;28;20051;-78
2021/12/25 02:31:21;;;;;;;19.63;12.93;;;;;;;8.12;84.17;95492.56;4955454;28;20058;-78
2021/12/25 02:33:48;;;;;;;14.90;10.88;;;;;;;8.13;84.20;95492.34;4956181;29;20105;-78
2021/12/25 02:36:17;;;;;;;18.35;12.65;;;;;;;8.14;84.10;95490.56;4955460;28;20047;-78
2021/12/25 02:38:47;;;;;;;29.50;16.40;;;;;;;8.12;84.06;95488.16;4955319;28;20066;-78
2021/12/25 02:41:15;;;;;;;23.67;14.23;;;;;;;8.08;83.93;95473.97;4955680;28;20047;-78
2021/12/25 02:43:45;;;;;;;24.38;14.35;;;;;;;8.04;84.18;95478.72;4955416;29;20103;-78
2021/12/25 02:46:13;;;;;;;20.02;13.07;;;;;;;8.01;84.45;95479.13;4955188;29;20047;-78
2021/12/25 02:48:42;;;;;;;20.63;12.82;;;;;;;7.99;84.47;95480.31;4955251;29;20055;-78
2021/12/25 02:51:11;;;;;;;18.63;12.43;;;;;;;7.99;84.69;95464.72;4955805;28;20059;-78
2021/12/25 02:53:40;;;;;;;19.25;12.65;;;;;;;7.98;84.81;95465.72;4955223;28;20055;-78
2021/12/25 02:56:09;;;;;;;17.85;12.13;;;;;;;7.99;84.78;95473.31;4954996;29;20092;-78
2021/12/25 02:58:36;;;;;;;18.15;11.07;;;;;;;8.01;84.86;95468.72;4955405;29;20047;-78
2021/12/25 03:01:07;;;;;;;16.48;11.27;;;;;;;8.02;84.74;95474.72;4955323;28;20055;-79
2021/12/25 03:03:35;;;;;;;19.60;11.68;;;;;;;8.00;84.70;95469.75;4955202;28;20047;-78
2021/12/25 03:06:03;;;;;;;15.73;10.65;;;;;;;8.02;84.89;95474.72;4954408;28;20051;-78
2021/12/25 03:08:30;;;;;;;18.67;11.48;;;;;;;8.03;84.68;95466.75;4955015;28;20406;-78
2021/12/25 03:10:59;;;;;;;17.65;11.77;;;;;;;8.04;84.37;95464.94;4954981;28;20055;-78
2021/12/25 03:13:35;;;;;;;17.45;10.88;;;;;;;8.01;84.51;95466.13;4954733;29;20402;-78
2021/12/25 03:16:07;;;;;;;18.73;12.05;;;;;;;8.01;84.65;95462.75;4954581;29;20054;-78
2021/12/25 03:18:40;;;;;;;16.23;10.65;;;;;;;7.98;84.57;95463.13;4955046;28;20065;-78
2021/12/25 03:21:08;;;;;;;16.60;10.80;;;;;;;7.94;84.50;95452.34;4954949;28;20058;-78
2021/12/25 03:23:37;;;;;;;16.33;10.32;;;;;;;7.91;84.43;95457.09;4954875;29;20047;-78
2021/12/25 03:26:07;;;;;;;15.15;10.10;;;;;;;7.89;84.77;95459.09;4954320;29;20506;-78
2021/12/25 03:28:39;;;;;;;15.60;10.23;;;;;;;7.87;84.80;95455.88;4954634;29;20526;-78
2021/12/25 03:31:14;;;;;;;13.77;8.77;;;;;;;7.86;84.87;95449.09;4955116;28;20473;-78
2021/12/25 03:33:43;;;;;;;11.93;8.75;;;;;;;7.84;84.69;95451.88;4954875;29;20043;-78
2021/12/25 03:36:10;;;;;;;11.27;8.30;;;;;;;7.83;84.91;95445.88;4954199;29;20055;-78
2021/12/25 03:38:38;;;;;;;12.73;9.13;;;;;;;7.86;85.05;95449.88;4954771;29;20054;-78
2021/12/25 03:41:07;;;;;;;9.93;7.57;;;;;;;7.87;84.84;95448.09;4954454;28;20055;-78
2021/12/25 03:43:39;;;;;;;11.38;8.13;;;;;;;7.89;84.90;95454.69;4954726;28;20051;-78
2021/12/25 03:46:09;;;;;;;12.50;8.03;;;;;;;7.93;84.99;95460.31;4954410;29;20078;-78
2021/12/25 03:48:59;;;;;;;11.25;7.63;;;;;;;7.94;84.92;95449.75;4954763;29;20047;-78
2021/12/25 03:59:52;;;;;;;9.00;7.05;;;;;;;7.95;84.48;95447.94;4954316;28;20059;-78
2021/12/25 04:02:25;;;;;;;9.23;7.47;;;;;;;7.92;84.16;95437.94;4954580;28;20058;-78
2021/12/25 04:04:53;;;;;;;10.13;7.47;;;;;;;7.90;84.13;95429.53;4954343;29;20055;-78
2021/12/25 04:07:45;;;;;;;8.93;7.25;;;;;;;7.86;83.89;95433.53;4953972;28;20047;-78
2021/12/25 04:10:12;;;;;;;8.75;7.00;;;;;;;7.79;84.10;95429.09;4954250;28;20052;-78
2021/12/25 04:12:40;;;;;;;10.45;7.18;;;;;;;7.73;84.02;95429.84;4954070;29;20359;-78
2021/12/25 04:15:09;;;;;;;11.23;8.00;;;;;;;7.70;84.64;95430.25;4954537;29;20051;-78
2021/12/25 04:17:37;;;;;;;9.57;7.53;;;;;;;7.67;84.37;95427.22;4956350;28;20051;-78
2021/12/25 04:20:06;;;;;;;7.30;6.53;;;;;;;7.62;84.48;95427.81;4957897;28;20047;-78
2021/12/25 04:22:42;;;;;;;8.88;7.15;;;;;;;7.63;84.68;95426.81;4958074;28;20132;-79
2021/12/25 04:25:10;;;;;;;12.90;8.18;;;;;;;7.65;84.90;95427.41;4957920;28;20058;-78
2021/12/25 04:27:38;;;;;;;8.95;6.95;;;;;;;7.67;84.90;95420.25;4957768;28;20048;-78
2021/12/25 04:30:23;;;;;;;7.45;6.63;;;;;;;7.67;84.93;95430.63;4957953;28;20051;-78
2021/12/25 04:42:30;;;;;;;7.65;6.43;;;;;;;7.69;85.03;95438.22;4957789;28;20051;-78
2021/12/25 05:03:47;;;;;;;6.90;5.93;;;;;;;7.72;84.40;95446.44;4957329;28;20085;-79
2021/12/25 05:06:15;;;;;;;6.72;6.03;;;;;;;7.73;84.79;95445.44;4956800;29;20059;-78
2021/12/25 05:08:43;;;;;;;7.13;6.25;;;;;;;7.76;84.83;95442.47;4956781;28;20054;-78
2021/12/25 05:11:11;;;;;;;7.45;5.93;;;;;;;7.78;84.72;95448.28;4956906;28;20055;-79
2021/12/25 05:13:38;;;;;;;6.68;5.50;;;;;;;7.80;84.74;95441.06;4956734;28;20548;-78
2021/12/25 05:16:06;;;;;;;9.38;6.70;;;;;;;7.81;84.61;95436.69;4956591;29;20055;-78
2021/12/25 05:18:34;;;;;;;7.07;5.43;;;;;;;7.83;84.85;95435.50;4957323;28;20394;-78
2021/12/25 05:21:02;;;;;;;9.07;5.93;;;;;;;7.86;84.97;95423.94;4956830;28;20532;-79
2021/12/25 05:23:30;;;;;;;6.30;5.25;;;;;;;7.88;84.79;95431.53;4956763;28;20062;-78
2021/12/25 05:25:57;;;;;;;7.18;4.60;;;;;;;7.88;84.61;95421.16;4956367;29;20509;-78
2021/12/25 05:28:26;;;;;;;5.75;4.50;;;;;;;7.89;84.63;95410.53;4956128;28;20066;-78
2021/12/25 05:30:54;;;;;;;3.85;3.30;;;;;;;7.90;84.73;95414.75;4956311;28;20076;-78
2021/12/25 05:33:22;;;;;;;4.03;3.40;;;;;;;7.93;84.74;95416.16;4956520;29;20054;-78
2021/12/25 05:35:50;;;;;;;3.97;2.97;;;;;;;7.95;84.52;95416.78;4956099;28;20059;-78
2021/12/25 05:38:19;;;;;;;4.60;3.60;;;;;;;7.97;84.39;95417.38;4956614;29;20421;-78
2021/12/25 05:40:47;;;;;;;2.95;2.65;;;;;;;7.97;84.30;95409.59;4956710;28;20051;-78
2021/12/25 05:43:16;;;;;;;4.53;3.10;;;;;;;7.99;84.35;95412.81;4956838;29;20051;-78
2021/12/25 05:45:43;;;;;;;3.45;2.78;;;;;;;8.02;84.19;95409.81;4956282;29;20054;-78
2021/12/25 05:48:12;;;;;;;4.78;3.33;;;;;;;8.02;84.05;95402.84;4956361;28;20493;-78
2021/12/25 05:50:39;;;;;;;3.80;2.88;;;;;;;8.01;84.02;95396.03;4956710;28;20055;-78
2021/12/25 05:53:07;;;;;;;5.15;2.88;;;;;;;8.03;84.21;95399.22;4956767;29;20425;-78
2021/12/25 05:55:36;;;;;;;2.67;2.33;;;;;;;8.05;83.86;95393.84;4956204;28;20051;-78
2021/12/25 05:58:07;;;;;;;3.33;3.03;;;;;;;8.06;83.74;95403.22;4956344;28;20051;-78
2021/12/25 06:00:35;;;;;;;4.53;3.03;;;;;;;8.06;83.79;95403.22;4956366;28;20054;-78
2021/12/25 06:03:03;;;;;;;2.78;2.55;;;;;;;8.07;83.81;95397.06;4956137;28;20051;-78
2021/12/25 06:05:31;;;;;;;3.33;2.10;;;;;;;8.06;83.93;95398.03;4956375;28;20429;-78
2021/12/25 06:07:59;;;;;;;3.03;2.60;;;;;;;8.06;83.79;95390.25;4955859;28;20047;-78
2021/12/25 06:10:26;;;;;;;4.03;2.90;;;;;;;8.06;83.84;95400.63;4955957;28;20058;-78
2021/12/25 06:12:58;;;;;;;2.95;2.65;;;;;;;8.04;84.03;95395.63;4955959;29;20505;-78
2021/12/25 06:15:28;;;;;;;3.17;2.88;;;;;;;8.01;83.60;95390.81;4955979;28;20055;-78
2021/12/25 06:17:56;;;;;;;3.65;2.58;;;;;;;8.03;83.80;95398.44;4956073;28;20052;-78
2021/12/25 06:20:24;;;;;;;4.57;3.20;;;;;;;8.00;83.90;95396.22;4955930;28;20429;-78
2021/12/25 06:22:51;;;;;;;4.72;3.42;;;;;;;8.00;83.67;95393.59;4956133;29;20055;-78
2021/12/25 06:25:19;;;;;;;3.67;3.35;;;;;;;7.97;83.51;95391.41;4956003;28;20126;-78
2021/12/25 06:27:47;;;;;;;4.13;2.60;;;;;;;7.92;83.40;95396.41;4955381;28;20058;-79
2021/12/25 06:30:16;;;;;;;3.92;2.88;;;;;;;7.85;83.49;95396.38;4955741;28;20066;-78
2021/12/25 06:32:43;;;;;;;4.97;3.53;;;;;;;7.79;83.50;95397.94;4955640;28;20478;-78
2021/12/25 06:35:12;;;;;;;11.65;6.60;;;;;;;7.74;83.44;95389.13;4955546;29;20465;-78
2021/12/25 06:37:41;;;;;;;6.07;4.57;;;;;;;7.69;83.58;95388.91;4955415;28;20101;-78
2021/12/25 06:40:11;;;;;;;8.70;5.63;;;;;;;7.66;83.76;95397.88;4954824;28;20467;-78
2021/12/25 06:42:39;;;;;;;12.18;7.40;;;;;;;7.62;83.68;95394.88;4954991;28;20062;-78
2021/12/25 06:45:07;;;;;;;8.35;5.18;;;;;;;7.61;83.76;95395.06;4955272;28;20059;-78
2021/12/25 06:47:36;;;;;;;8.05;3.85;;;;;;;7.62;83.71;95394.06;4955183;29;20058;-78
2021/12/25 06:50:07;;;;;;;5.70;3.33;;;;;;;7.64;83.86;95398.06;4955365;28;20051;-78
2021/12/25 06:52:35;;;;;;;5.00;3.40;;;;;;;7.66;83.62;95377.13;4955926;28;20063;-78
2021/12/25 06:55:03;;;;;;;4.22;2.67;;;;;;;7.68;83.69;95395.91;4954952;29;20047;-78
2021/12/25 06:57:31;;;;;;;3.53;2.22;;;;;;;7.68;83.65;95382.13;4955339;29;20055;-78
2021/12/25 07:00:00;;;;;;;3.28;2.42;;;;;;;7.70;83.46;95382.75;4954985;28;20505;-78
2021/12/25 07:02:28;;;;;;;3.80;2.60;;;;;;;7.70;83.46;95390.53;4955139;28;20509;-78
2021/12/25 07:04:57;;;;;;;8.40;4.70;;;;;;;7.68;83.29;95395.91;4955166;29;20056;-78
2021/12/25 07:07:24;;;;;;;7.82;4.30;;;;;;;7.67;83.21;95386.50;4954817;28;20114;-78
2021/12/25 07:09:52;;;;;;;7.05;4.55;;;;;;;7.67;83.51;95389.09;4955044;28;20061;-78
2021/12/25 07:12:23;;;;;;;7.45;4.22;;;;;;;7.68;83.37;95385.53;4955522;29;20524;-78
2021/12/25 07:14:50;;;;;;;14.00;7.55;;;;;;;7.70;83.40;95383.53;4954953;28;20058;-78
2021/12/25 07:17:19;;;;;;;13.25;7.60;;;;;;;7.71;83.24;95386.91;4954903;29;20059;-78
2021/12/25 07:19:46;;;;;;;13.57;7.13;;;;;;;7.70;83.04;95380.94;4961566;28;20058;-79
2021/12/25 07:22:15;;;;;;;12.35;5.97;;;;;;;7.71;83.14;95379.94;4965167;29;20055;-78
2021/12/25 07:24:42;;;;;;;10.32;5.72;;;;;;;7.71;83.09;95385.13;4966104;28;20066;-78
2021/12/25 07:27:10;;;;;;;10.00;5.00;;;;;;;7.71;82.89;95379.94;4964682;29;20058;-78
2021/12/25 07:29:37;;;;;;;10.75;5.47;;;;;;;7.73;83.16;95377.16;4957086;28;20058;-78
2021/12/25 07:32:05;;;;;;;7.55;4.72;;;;;;;7.75;83.43;95381.16;4955813;29;20054;-78
2021/12/25 07:34:33;;;;;;;11.40;6.18;;;;;;;7.78;83.14;95382.56;4955202;28;20055;-78
2021/12/25 07:37:01;;;;;;;12.68;7.38;;;;;;;7.78;83.01;95385.97;4954940;29;20409;-78
2021/12/25 07:39:30;;;;;;;11.10;6.22;;;;;;;7.78;83.05;95391.16;4955014;28;20062;-78
2021/12/25 07:41:58;;;;;;;8.30;5.65;;;;;;;7.79;82.81;95386.75;4954680;29;20520;-78
2021/12/25 07:44:25;;;;;;;14.02;8.10;;;;;;;7.76;82.83;95384.53;4954194;29;20421;-78
2021/12/25 07:46:54;;;;;;;11.80;7.43;;;;;;;7.75;82.82;95381.16;4953927;28;20059;-78
2021/12/25 07:49:22;;;;;;;14.93;9.73;;;;;;;7.74;82.96;95384.75;4954141;28;20054;-78
2021/12/25 07:51:49;;;;;;;14.75;9.85;;;;;;;7.73;83.00;95401.31;4954439;28;20055;-78
2021/12/25 07:54:17;;;;;;;13.18;8.85;;;;;;;7.75;83.12;95391.53;4954364;29;20059;-78
2021/12/25 07:56:47;;;;;;;15.30;9.90;;;;;;;7.75;83.17;95386.34;4954049;29;20070;-78
2021/12/25 07:59:16;;;;;;;11.07;7.72;;;;;;;7.76;83.06;95393.16;4953986;28;20402;-78
2021/12/25 08:01:44;;;;;;;13.82;8.98;;;;;;;7.78;83.53;95396.34;4954077;28;20052;-78
2021/12/25 08:04:12;;;;;;;9.00;6.50;;;;;;;7.80;83.37;95396.94;4954225;28;20111;-78
2021/12/25 08:06:40;;;;;;;8.57;6.25;;;;;;;7.82;83.42;95402.72;4953919;29;20469;-78
2021/12/25 08:09:07;;;;;;;7.95;5.47;;;;;;;7.86;83.45;95404.97;4954173;28;20051;-78
2021/12/25 08:11:36;;;;;;;6.60;4.95;;;;;;;7.90;83.63;95411.38;4954303;28;20059;-78
2021/12/25 08:14:05;;;;;;;5.32;4.35;;;;;;;7.91;83.40;95405.16;4953767;28;20051;-78
2021/12/25 08:16:32;;;;;;;5.13;4.30;;;;;;;7.90;83.77;95414.75;4953831;28;20054;-78
2021/12/25 08:19:00;;;;;;;4.82;3.30;;;;;;;7.92;83.74;95417.16;4953931;28;20062;-78
2021/12/25 08:21:28;;;;;;;4.07;3.65;;;;;;;7.92;83.57;95422.38;4954291;29;20564;-78
2021/12/25 08:23:55;;;;;;;3.58;3.28;;;;;;;7.91;83.56;95416.34;4953996;29;20059;-78
2021/12/25 08:26:23;;;;;;;4.97;3.58;;;;;;;7.94;84.10;95425.56;4953625;28;20061;-78
2021/12/25 08:28:50;;;;;;;4.80;3.88;;;;;;;7.96;84.04;95426.97;4953848;29;20187;-78
2021/12/25 08:31:19;;;;;;;4.30;3.55;;;;;;;7.99;84.04;95433.56;4953706;28;20071;-79
2021/12/25 08:33:47;;;;;;;4.85;4.18;;;;;;;8.00;84.29;95435.16;4954077;28;20055;-78
2021/12/25 08:36:15;;;;;;;5.03;3.90;;;;;;;8.01;84.02;95447.16;4953665;29;20509;-78
2021/12/25 08:38:43;;;;;;;5.85;5.15;;;;;;;8.03;84.18;95450.38;4954307;29;20051;-78
2021/12/25 08:41:14;;;;;;;5.35;4.43;;;;;;;8.02;84.27;95448.75;4954450;28;20722;-78
2021/12/25 08:43:47;;;;;;;8.30;6.45;;;;;;;8.03;84.38;95456.38;4954261;29;20058;-79
2021/12/25 08:46:18;;;;;;;8.52;6.05;;;;;;;8.05;84.64;95459.56;4954128;29;20062;-78
2021/12/25 08:48:47;;;;;;;8.00;5.38;;;;;;;8.07;84.45;95456.78;4954833;29;20043;-78
2021/12/25 08:51:15;;;;;;;9.00;6.07;;;;;;;8.09;84.38;95470.38;4953924;28;20051;-78
2021/12/25 08:53:42;;;;;;;9.48;6.50;;;;;;;8.10;84.63;95476.38;4953830;28;20081;-78
2021/12/25 08:56:10;;;;;;;9.88;6.90;;;;;;;8.12;84.81;95479.56;4953795;28;20055;-78
2021/12/25 08:58:37;;;;;;;10.55;6.38;;;;;;;8.12;84.66;95480.38;4954028;29;20528;-78
2021/12/25 09:01:07;;;;;;;7.22;5.68;;;;;;;8.14;84.80;95488.78;4953871;28;20047;-78
2021/12/25 09:03:35;;;;;;;9.73;6.38;;;;;;;8.17;84.51;95487.56;4954542;28;20479;-78
2021/12/25 09:06:04;;;;;;;6.38;5.78;;;;;;;8.18;84.71;95494.41;4956705;28;20226;-78
2021/12/25 09:08:32;;;;;;;8.40;6.10;;;;;;;8.19;84.72;95495.97;4956994;29;20057;-78
2021/12/25 09:11:00;;;;;;;6.50;5.53;;;;;;;8.20;84.77;95493.19;4957090;28;20066;-78
2021/12/25 09:13:28;;;;;;;7.30;5.68;;;;;;;8.22;84.63;95495.59;4957317;29;20055;-78
2021/12/25 09:15:56;;;;;;;7.07;6.15;;;;;;;8.24;84.63;95494.41;4957071;29;20051;-78
2021/12/25 09:18:23;;;;;;;7.18;5.88;;;;;;;8.25;84.59;95493.41;4957514;29;20469;-78
2021/12/25 09:20:51;;;;;;;8.45;5.35;;;;;;;8.27;84.63;95492.44;4956825;28;20055;-78
2021/12/25 09:23:20;;;;;;;6.82;5.55;;;;;;;8.30;84.58;95497.22;4957558;29;20058;-78
2021/12/25 09:25:47;;;;;;;7.63;5.28;;;;;;;8.31;84.54;95491.03;4956815;29;20062;-78
2021/12/25 09:28:15;;;;;;;5.43;4.88;;;;;;;8.32;84.55;95496.03;4957546;28;20055;-78
2021/12/25 09:30:43;;;;;;;5.82;5.15;;;;;;;8.35;84.57;95490.47;4956815;28;20051;-78
2021/12/25 09:33:11;;;;;;;5.57;4.93;;;;;;;8.37;84.48;95485.84;4956977;28;20428;-78
2021/12/25 09:35:38;;;;;;;6.30;5.38;;;;;;;8.40;84.25;95487.28;4956863;29;20051;-78
2021/12/25 09:38:06;;;;;;;6.85;5.90;;;;;;;8.43;84.33;95499.91;4956200;28;20055;-78
2021/12/25 09:40:35;;;;;;;6.47;5.57;;;;;;;8.43;84.37;95497.31;4956748;28;20062;-78
2021/12/25 09:43:03;;;;;;;7.05;5.28;;;;;;;8.43;84.34;95487.69;4956447;29;20055;-78
2021/12/25 09:45:30;;;;;;;8.95;5.78;;;;;;;8.44;84.21;95491.91;4956682;29;20132;-78
2021/12/25 09:47:58;;;;;;;7.00;5.80;;;;;;;8.45;84.35;95483.09;4956260;28;20047;-78
2021/12/25 09:50:26;;;;;;;6.78;5.50;;;;;;;8.47;84.21;95484.72;4956293;28;20066;-78
2021/12/25 09:52:54;;;;;;;6.35;5.60;;;;;;;8.48;84.11;95481.91;4956253;28;20047;-78
2021/12/25 09:55:21;;;;;;;6.30;5.07;;;;;;;8.49;84.17;95486.13;4956371;29;20055;-78
2021/12/25 09:57:50;;;;;;;6.60;5.43;;;;;;;8.50;84.14;95487.72;4956403;29;20051;-78
2021/12/25 10:00:21;;;;;;;5.40;4.78;;;;;;;8.50;84.13;95485.13;4956342;28;20063;-78
2021/12/25 10:02:51;;;;;;;4.47;4.07;;;;;;;8.50;84.05;95481.72;4955899;28;20059;-78
2021/12/25 10:05:28;;;;;;;4.90;4.40;;;;;;;8.50;84.09;95490.31;4956216;28;20051;-78
2021/12/25 10:08:07;;;;;;;5.30;3.85;;;;;;;8.52;84.30;95485.72;4955982;29;20415;-78
2021/12/25 10:10:41;;;;;;;4.65;4.15;;;;;;;8.52;84.23;95480.53;4955725;28;20057;-78
2021/12/25 10:13:28;;;;;;;4.15;3.50;;;;;;;8.53;84.29;95487.34;4955998;28;20058;-78
2021/12/25 10:16:00;;;;;;;5.78;4.10;;;;;;;8.52;84.10;95485.72;4955300;28;20515;-78
2021/12/25 10:18:31;;;;;;;5.85;4.88;;;;;;;8.52;84.00;95490.13;4955631;28;20051;-78
2021/12/25 10:21:17;;;;;;;4.47;3.85;;;;;;;8.52;84.10;95492.72;4955885;28;20421;-78
2021/12/25 10:23:45;;;;;;;4.55;3.75;;;;;;;8.52;83.98;95485.72;4955788;28;20055;-78
2021/12/25 10:26:22;;;;;;;4.07;3.67;;;;;;;8.53;84.20;95487.34;4955238;29;20058;-78
2021/12/25 10:28:51;;;;;;;4.38;3.75;;;;;;;8.52;84.27;95485.72;4955741;29;20054;-78
2021/12/25 10:31:30;;;;;;;4.45;3.55;;;;;;;8.55;83.79;95485.34;4955230;28;20062;-78
2021/12/25 10:33:57;;;;;;;4.13;3.03;;;;;;;8.55;83.68;95500.94;4955718;29;20114;-78
2021/12/25 10:36:27;;;;;;;4.72;3.30;;;;;;;8.54;83.69;95488.94;4955310;28;20055;-78
2021/12/25 10:38:59;;;;;;;4.13;3.00;;;;;;;8.54;83.78;95488.13;4955939;29;20066;-78
2021/12/25 10:41:27;;;;;;;6.57;3.38;;;;;;;8.55;83.75;95489.72;4955840;29;20059;-78
2021/12/25 10:44:14;;;;;;;2.95;2.67;;;;;;;8.56;83.96;95483.53;4955654;29;20074;-78
2021/12/25 10:46:52;;;;;;;4.28;3.05;;;;;;;8.57;84.13;95482.53;4955286;28;20510;-78
2021/12/25 10:49:22;;;;;;;2.92;2.63;;;;;;;8.57;83.54;95472.97;4955387;28;20051;-78
2021/12/25 10:51:49;;;;;;;3.92;3.08;;;;;;;8.58;83.79;95469.34;4955539;29;20136;-78
2021/12/25 10:54:18;;;;;;;4.25;3.83;;;;;;;8.61;83.82;95466.34;4955470;28;20051;-78
2021/12/25 10:56:48;;;;;;;4.32;3.35;;;;;;;8.62;83.92;95467.97;4954901;28;20062;-78
2021/12/25 10:59:18;;;;;;;5.22;3.72;;;;;;;8.62;84.10;95462.75;4955249;28;20505;-78
2021/12/25 11:01:47;;;;;;;4.30;3.70;;;;;;;8.63;84.19;95456.56;4955560;28;20062;-78
2021/12/25 11:04:27;;;;;;;3.70;3.20;;;;;;;8.62;84.40;95459.38;4955169;29;20051;-78
2021/12/25 11:06:55;;;;;;;4.57;3.22;;;;;;;8.61;83.98;95461.16;4954729;29;20050;-79
2021/12/25 11:09:23;;;;;;;4.00;3.38;;;;;;;8.62;83.93;95460.16;4955238;28;20047;-78
2021/12/25 11:12:17;;;;;;;6.28;3.80;;;;;;;8.62;84.61;95459.38;4955210;28;20055;-78
2021/12/25 11:14:50;;;;;;;4.40;3.45;;;;;;;8.61;84.18;95458.53;4955435;28;20071;-78
2021/12/25 11:17:22;;;;;;;3.80;3.42;;;;;;;8.61;84.28;95462.94;4954528;28;20055;-78
2021/12/25 11:19:58;;;;;;;3.47;3.17;;;;;;;8.62;84.41;95461.97;4955159;28;20051;-78
2021/12/25 11:22:26;;;;;;;4.22;3.60;;;;;;;8.61;84.30;95463.75;4955130;29;20066;-78
2021/12/25 11:24:57;;;;;;;6.03;3.72;;;;;;;8.61;84.62;95457.75;4955039;29;20051;-78
2021/12/25 11:27:25;;;;;;;3.20;2.90;;;;;;;8.59;84.59;95460.56;4954385;28;20043;-78
2021/12/25 11:29:54;;;;;;;4.32;3.60;;;;;;;8.59;84.74;95465.78;4954660;28;20055;-78
2021/12/25 11:32:22;;;;;;;5.13;3.95;;;;;;;8.57;84.68;95462.56;4954584;28;20054;-78
2021/12/25 11:34:51;;;;;;;4.60;3.65;;;;;;;8.57;84.94;95467.75;4954854;28;20066;-78
2021/12/25 11:37:19;;;;;;;3.55;3.25;;;;;;;8.54;84.86;95460.34;4954092;28;20449;-78
2021/12/25 11:39:52;;;;;;;4.05;3.40;;;;;;;8.54;85.00;95457.75;4954559;28;20599;-78
2021/12/25 11:42:20;;;;;;;3.72;2.92;;;;;;;8.52;84.98;95454.53;4954547;28;20566;-78
2021/12/25 11:44:52;;;;;;;3.90;3.00;;;;;;;8.51;85.13;95457.34;4954002;28;20051;-78
2021/12/25 11:47:33;;;;;;;3.92;3.17;;;;;;;8.50;85.57;95456.53;4954167;28;20051;-78
2021/12/25 11:50:05;;;;;;;4.63;3.17;;;;;;;8.50;85.39;95456.53;4954260;28;20053;-78
2021/12/25 11:52:38;;;;;;;3.35;3.05;;;;;;;8.51;85.39;95452.94;4954365;29;20063;-78
2021/12/25 11:55:46;;;;;;;3.92;3.10;;;;;;;8.52;85.63;95458.94;4954453;28;20070;-78
2021/12/25 11:58:39;;;;;;;3.72;2.88;;;;;;;8.53;85.37;95456.16;4954456;29;20043;-78
2021/12/25 12:01:29;;;;;;;4.60;3.20;;;;;;;8.56;85.53;95454.94;4954188;28;20055;-78
2021/12/25 12:04:01;;;;;;;3.60;3.10;;;;;;;8.57;85.26;95446.97;4954560;28;20138;-78
2021/12/25 12:06:56;;;;;;;3.20;2.90;;;;;;;8.62;85.29;95448.97;4954041;28;20051;-78
2021/12/25 12:09:27;;;;;;;3.00;2.70;;;;;;;8.61;85.03;95455.94;4954404;28;20422;-78
2021/12/25 12:12:12;;;;;;;3.58;3.13;;;;;;;8.61;85.08;95455.94;4954192;28;20100;-78
2021/12/25 12:14:40;;;;;;;3.35;3.03;;;;;;;8.61;84.88;95455.94;4954135;29;20058;-78
2021/12/25 12:17:10;;;;;;;3.67;3.28;;;;;;;8.62;85.11;95454.97;4953853;29;20058;-78
2021/12/25 12:19:44;;;;;;;4.38;3.40;;;;;;;8.63;84.88;95461.75;4954222;28;20047;-78
2021/12/25 12:22:40;;;;;;;5.97;3.47;;;;;;;8.63;85.00;95460.97;4954396;28;20055;-78
2021/12/25 12:25:20;;;;;;;4.38;3.10;;;;;;;8.62;84.71;95460.16;4954066;28;20058;-78
2021/12/25 12:27:53;;;;;;;5.78;3.85;;;;;;;8.62;84.93;95459.38;4953884;29;20051;-78
2021/12/25 12:30:52;;;;;;;3.78;3.38;;;;;;;8.64;84.87;95463.38;4953531;28;20051;-78
2021/12/25 12:33:37;;;;;;;3.63;3.03;;;;;;;8.66;84.95;95461.38;4954420;28;20059;-78
2021/12/25 12:36:24;;;;;;;4.95;3.60;;;;;;;8.68;84.65;95465.56;4953907;28;20078;-78
2021/12/25 12:38:56;;;;;;;4.38;3.42;;;;;;;8.68;84.53;95465.56;4955099;28;20452;-78
2021/12/25 12:41:32;;;;;;;5.57;3.83;;;;;;;8.70;84.57;95471.38;4958021;29;20063;-78